createdAt,value
2017-10-08T00:01:15.795Z,75.30
2017-10-08T00:03:44.051Z,75.56
2017-10-08T00:06:12.084Z,75.77
2017-10-08T00:08:41.023Z,75.00
2017-10-08T00:11:08.977Z,75.82
2017-10-08T00:13:48.352Z,75.85
2017-10-08T00:16:21.806Z,76.47
2017-10-08T00:18:50.641Z,76.19
2017-10-08T00:21:19.544Z,75.93
2017-10-08T00:23:47.529Z,77.07
2017-10-08T00:26:16.233Z,77.86
2017-10-08T00:28:44.185Z,78.50
2017-10-08T00:31:13.094Z,78.39
2017-10-08T00:33:41.614Z,78.28
2017-10-08T00:36:09.266Z,77.83
2017-10-08T00:38:37.209Z,77.68
2017-10-08T00:41:05.763Z,77.80
2017-10-08T00:43:33.497Z,78.36
2017-10-08T00:46:01.216Z,79.11
2017-10-08T00:48:29.193Z,78.56
2017-10-08T00:50:56.850Z,78.33
2017-10-08T00:53:24.531Z,78.65
2017-10-08T00:55:53.449Z,79.00
2017-10-08T00:58:22.207Z,78.71
2017-10-08T01:00:49.840Z,79.04
2017-10-08T01:03:17.577Z,79.26
2017-10-08T01:13:41.164Z,79.21
2017-10-08T01:16:12.049Z,79.30
2017-10-08T01:18:40.197Z,79.28
2017-10-08T01:21:08.396Z,79.28
2017-10-08T01:23:36.694Z,79.58
2017-10-08T01:26:04.580Z,79.90
2017-10-08T01:28:36.032Z,79.91
2017-10-08T01:31:03.863Z,79.48
2017-10-08T01:33:33.022Z,79.61
2017-10-08T01:36:00.881Z,79.79
2017-10-08T01:38:28.875Z,79.59
2017-10-08T01:40:56.734Z,79.60
2017-10-08T01:43:24.430Z,79.87
2017-10-08T01:45:52.532Z,80.01
2017-10-08T01:48:20.284Z,79.80
2017-10-08T01:50:48.040Z,79.75
2017-10-08T01:53:17.580Z,79.68
2017-10-08T01:55:45.438Z,79.26
2017-10-08T01:58:13.594Z,79.22
2017-10-08T02:00:41.473Z,79.42
2017-10-08T02:03:09.308Z,79.33
2017-10-08T02:05:37.163Z,79.40
2017-10-08T02:08:05.116Z,79.27
2017-10-08T02:10:32.816Z,78.89
2017-10-08T02:13:00.636Z,78.92
2017-10-08T02:15:28.436Z,78.92
2017-10-08T02:17:56.003Z,78.19
2017-10-08T02:20:24.608Z,77.88
2017-10-08T02:22:53.063Z,77.29
2017-10-08T02:25:20.862Z,77.52
2017-10-08T02:27:48.698Z,78.00
2017-10-08T02:30:17.098Z,78.62
2017-10-08T02:32:44.792Z,78.28
2017-10-08T02:35:12.868Z,77.87
2017-10-08T02:37:41.148Z,78.25
2017-10-08T02:40:08.953Z,78.51
2017-10-08T02:42:37.882Z,78.81
2017-10-08T02:45:06.439Z,78.79
2017-10-08T02:47:35.095Z,78.91
2017-10-08T02:50:02.935Z,78.44
2017-10-08T02:52:35.303Z,78.50
2017-10-08T02:55:09.666Z,78.54
2017-10-08T03:00:34.180Z,78.49
2017-10-08T03:05:38.875Z,78.54
2017-10-08T03:08:06.953Z,78.33
2017-10-08T03:10:34.718Z,78.08
2017-10-08T03:13:02.368Z,78.92
2017-10-08T03:15:30.263Z,79.01
2017-10-08T03:17:58.883Z,79.21
2017-10-08T03:20:26.698Z,79.04
2017-10-08T03:22:54.382Z,79.46
2017-10-08T03:25:23.432Z,79.32
2017-10-08T03:27:51.326Z,79.49
2017-10-08T03:30:18.929Z,80.21
2017-10-08T03:32:47.608Z,80.92
2017-10-08T03:35:15.452Z,81.12
2017-10-08T03:37:43.177Z,81.81
2017-10-08T03:40:11.075Z,82.06
2017-10-08T03:42:38.835Z,82.51
2017-10-08T03:45:06.712Z,82.35
2017-10-08T03:47:34.488Z,82.39
2017-10-08T03:50:02.226Z,82.62
2017-10-08T03:52:30.061Z,83.08
2017-10-08T03:54:57.798Z,83.18
2017-10-08T03:57:25.422Z,82.75
2017-10-08T03:59:53.112Z,82.62
2017-10-08T04:02:23.003Z,83.27
2017-10-08T04:04:50.939Z,83.23
2017-10-08T04:07:18.925Z,83.42
2017-10-08T04:09:46.567Z,84.05
2017-10-08T04:12:15.036Z,83.62
2017-10-08T04:14:45.018Z,83.53
2017-10-08T04:17:12.797Z,83.62
2017-10-08T04:19:43.550Z,83.24
2017-10-08T04:22:11.326Z,82.94
2017-10-08T04:24:39.207Z,82.90
2017-10-08T04:27:07.100Z,82.83
2017-10-08T04:29:35.000Z,83.20
2017-10-08T04:32:02.996Z,83.87
2017-10-08T04:34:30.613Z,83.24
2017-10-08T04:36:58.333Z,82.55
2017-10-08T04:39:25.857Z,82.93
2017-10-08T04:41:53.567Z,83.23
2017-10-08T04:44:22.741Z,83.54
2017-10-08T04:46:50.519Z,83.03
2017-10-08T04:49:19.682Z,83.10
2017-10-08T04:51:47.792Z,83.73
2017-10-08T04:54:17.394Z,83.64
2017-10-08T04:56:45.211Z,83.76
2017-10-08T04:59:12.967Z,83.80
2017-10-08T05:01:41.721Z,83.80
2017-10-08T05:04:09.897Z,83.27
2017-10-08T05:06:38.836Z,83.88
2017-10-08T05:09:06.665Z,84.36
2017-10-08T05:11:34.370Z,84.90
2017-10-08T05:14:01.971Z,84.45
2017-10-08T05:16:29.720Z,84.29
2017-10-08T05:18:57.304Z,84.57
2017-10-08T05:21:26.152Z,85.36
2017-10-08T05:23:53.831Z,84.60
2017-10-08T05:26:21.494Z,84.50
2017-10-08T05:28:48.963Z,85.24
2017-10-08T05:31:16.551Z,85.23
2017-10-08T05:33:44.036Z,84.47
2017-10-08T05:36:11.583Z,84.31
2017-10-08T05:38:39.139Z,83.94
2017-10-08T05:41:06.744Z,83.69
2017-10-08T05:43:35.448Z,83.98
2017-10-08T05:46:02.915Z,84.22
2017-10-08T05:48:30.492Z,84.13
2017-10-08T05:50:58.854Z,84.71
2017-10-08T05:53:28.681Z,84.86
2017-10-08T05:55:56.178Z,84.93
2017-10-08T05:58:23.661Z,84.39
2017-10-08T06:00:51.256Z,83.87
2017-10-08T06:03:18.829Z,85.07
2017-10-08T06:05:49.482Z,84.91
2017-10-08T06:13:18.148Z,83.46
2017-10-08T06:15:45.666Z,83.16
2017-10-08T06:21:22.446Z,83.63
2017-10-08T06:24:11.426Z,84.01
2017-10-08T06:32:10.734Z,84.07
2017-10-08T06:34:55.734Z,84.31
2017-10-08T06:43:08.370Z,83.22
2017-10-08T06:46:01.944Z,82.90
2017-10-08T06:51:29.169Z,82.93
2017-10-08T06:53:56.786Z,82.84
2017-10-08T06:56:41.284Z,82.63
2017-10-08T06:59:09.701Z,82.45
2017-10-08T07:07:08.897Z,82.83
2017-10-08T07:09:36.384Z,82.00
2017-10-08T07:12:03.868Z,82.19
2017-10-08T07:14:31.328Z,82.54
2017-10-08T07:19:32.910Z,81.34
2017-10-08T07:22:00.412Z,81.95
2017-10-08T07:24:27.887Z,81.70
2017-10-08T07:26:55.380Z,81.21
2017-10-08T07:29:22.831Z,81.83
2017-10-08T07:31:50.344Z,82.17
2017-10-08T07:34:17.873Z,81.71
2017-10-08T07:36:45.414Z,81.25
2017-10-08T07:39:12.977Z,81.61
2017-10-08T07:41:41.336Z,80.88
2017-10-08T07:44:09.233Z,80.80
2017-10-08T07:46:43.417Z,82.02
2017-10-08T07:51:47.269Z,81.56
2017-10-08T07:54:15.131Z,81.16
2017-10-08T07:56:42.667Z,81.25
2017-10-08T07:59:12.054Z,80.85
2017-10-08T08:01:42.287Z,80.62
2017-10-08T08:04:11.919Z,81.40
2017-10-08T08:06:39.456Z,80.96
2017-10-08T08:09:07.441Z,80.40
2017-10-08T08:11:38.015Z,81.56
2017-10-08T08:14:07.057Z,80.70
2017-10-08T08:16:35.935Z,81.04
2017-10-08T08:19:06.544Z,80.73
2017-10-08T08:21:34.165Z,80.24
2017-10-08T08:24:01.722Z,80.24
2017-10-08T08:26:29.441Z,80.30
2017-10-08T08:28:56.996Z,80.33
2017-10-08T08:31:24.529Z,80.68
2017-10-08T08:33:52.115Z,79.80
2017-10-08T08:36:19.625Z,79.75
2017-10-08T08:38:47.178Z,79.55
2017-10-08T08:41:14.820Z,78.57
2017-10-08T08:43:42.397Z,79.49
2017-10-08T08:46:09.944Z,79.52
2017-10-08T08:48:37.599Z,79.65
2017-10-08T08:51:05.112Z,78.34
2017-10-08T08:53:32.835Z,78.21
2017-10-08T08:56:00.378Z,77.02
2017-10-08T08:58:28.041Z,76.18
2017-10-08T09:00:55.575Z,76.26
2017-10-08T09:03:25.596Z,76.11
2017-10-08T09:05:54.175Z,74.39
2017-10-08T09:08:26.700Z,73.02
2017-10-08T09:10:54.332Z,72.07
2017-10-08T09:13:22.091Z,71.73
2017-10-08T09:15:49.664Z,72.61
2017-10-08T09:18:18.295Z,74.77
2017-10-08T09:20:45.914Z,75.16
2017-10-08T09:23:13.489Z,75.62
2017-10-08T09:25:41.188Z,75.52
2017-10-08T09:28:14.064Z,75.17
2017-10-08T09:30:42.663Z,75.11
2017-10-08T09:33:10.367Z,74.65
2017-10-08T09:35:37.952Z,74.46
2017-10-08T09:38:05.538Z,74.58
2017-10-08T09:40:33.098Z,74.67
2017-10-08T09:43:00.649Z,75.73
2017-10-08T09:45:28.174Z,74.35
2017-10-08T09:47:55.732Z,74.64
2017-10-08T09:50:23.322Z,75.09
2017-10-08T09:52:51.015Z,74.80
2017-10-08T09:55:18.619Z,74.41
2017-10-08T09:57:46.157Z,74.39
2017-10-08T10:00:13.745Z,74.31
2017-10-08T10:02:41.473Z,74.42
2017-10-08T10:05:09.118Z,73.32
2017-10-08T10:07:37.537Z,73.54
2017-10-08T10:10:05.705Z,73.56
2017-10-08T10:12:33.294Z,73.12
2017-10-08T10:15:00.945Z,73.98
2017-10-08T10:17:28.586Z,73.95
2017-10-08T10:19:58.265Z,73.43
2017-10-08T10:22:25.795Z,74.08
2017-10-08T10:24:53.339Z,73.74
2017-10-08T10:27:20.936Z,73.80
2017-10-08T10:29:48.513Z,73.70
2017-10-08T10:32:16.018Z,72.93
2017-10-08T10:34:43.586Z,72.71
2017-10-08T10:43:22.814Z,70.31
2017-10-08T10:45:50.397Z,71.56
2017-10-08T10:48:18.108Z,69.11
2017-10-08T12:46:07.737Z,51.19
2017-10-08T12:49:02.382Z,52.72
2017-10-08T12:54:26.041Z,52.96
2017-10-08T13:08:31.287Z,57.97
2017-10-08T13:10:59.185Z,60.02
2017-10-08T13:13:26.745Z,64.25
2017-10-08T13:36:31.853Z,64.53
2017-10-08T13:38:59.441Z,64.12
2017-10-08T13:41:27.034Z,63.04
2017-10-08T13:46:31.182Z,62.96
2017-10-08T13:48:59.865Z,62.58
2017-10-08T13:51:28.781Z,61.71
2017-10-08T13:57:04.459Z,60.93
2017-10-08T13:59:33.287Z,60.73
2017-10-08T14:02:02.785Z,60.36
